sensor_id;sensor_type;location;lat;lon;timestamp;P1;durP1;ratioP1;P2;durP2;ratioP2
20482;SDS011;10400;53.198;6.592;2022-10-16T00:00:56;7.13;;;1.45;;
20482;SDS011;10400;53.198;6.592;2022-10-16T00:03:22;8.52;;;2.30;;
20482;SDS011;10400;53.198;6.592;2022-10-16T00:05:48;9.52;;;1.70;;
20482;SDS011;10400;53.198;6.592;2022-10-16T00:08:13;5.88;;;1.42;;
20482;SDS011;10400;53.198;6.592;2022-10-16T00:10:39;6.65;;;1.65;;
20482;SDS011;10400;53.198;6.592;2022-10-16T00:13:05;8.18;;;1.42;;
20482;SDS011;10400;53.198;6.592;2022-10-16T00:15:35;11.75;;;1.65;;
20482;SDS011;10400;53.198;6.592;2022-10-16T00:18:02;6.45;;;1.83;;
20482;SDS011;10400;53.198;6.592;2022-10-16T00:20:29;5.60;;;1.55;;
20482;SDS011;10400;53.198;6.592;2022-10-16T00:22:56;5.13;;;1.60;;
20482;SDS011;10400;53.198;6.592;2022-10-16T00:25:22;12.07;;;1.88;;
20482;SDS011;10400;53.198;6.592;2022-10-16T00:27:48;6.70;;;1.50;;
20482;SDS011;10400;53.198;6.592;2022-10-16T00:30:13;4.60;;;1.35;;
20482;SDS011;10400;53.198;6.592;2022-10-16T00:32:39;5.70;;;1.48;;
20482;SDS011;10400;53.198;6.592;2022-10-16T00:35:05;4.78;;;1.50;;
20482;SDS011;10400;53.198;6.592;2022-10-16T00:37:30;7.28;;;2.25;;
20482;SDS011;10400;53.198;6.592;2022-10-16T00:39:56;5.05;;;1.40;;
20482;SDS011;10400;53.198;6.592;2022-10-16T00:42:22;9.00;;;1.30;;
20482;SDS011;10400;53.198;6.592;2022-10-16T00:47:35;5.80;;;1.60;;
20482;SDS011;10400;53.198;6.592;2022-10-16T00:50:08;8.10;;;1.65;;
20482;SDS011;10400;53.198;6.592;2022-10-16T00:52:38;3.90;;;1.60;;
20482;SDS011;10400;53.198;6.592;2022-10-16T00:55:06;6.82;;;1.60;;
20482;SDS011;10400;53.198;6.592;2022-10-16T00:57:34;6.18;;;1.88;;
20482;SDS011;10400;53.198;6.592;2022-10-16T01:00:00;5.10;;;1.48;;
20482;SDS011;10400;53.198;6.592;2022-10-16T01:02:28;5.65;;;1.38;;
20482;SDS011;10400;53.198;6.592;2022-10-16T01:04:53;7.75;;;1.77;;
20482;SDS011;10400;53.198;6.592;2022-10-16T01:10:36;5.50;;;1.25;;
20482;SDS011;10400;53.198;6.592;2022-10-16T01:13:13;5.43;;;1.23;;
20482;SDS011;10400;53.198;6.592;2022-10-16T01:15:51;5.25;;;1.35;;
20482;SDS011;10400;53.198;6.592;2022-10-16T01:18:32;3.50;;;1.50;;
20482;SDS011;10400;53.198;6.592;2022-10-16T01:21:06;5.78;;;1.30;;
20482;SDS011;10400;53.198;6.592;2022-10-16T01:23:44;7.97;;;1.25;;
20482;SDS011;10400;53.198;6.592;2022-10-16T01:28:59;7.88;;;1.50;;
20482;SDS011;10400;53.198;6.592;2022-10-16T01:31:32;6.55;;;1.10;;
20482;SDS011;10400;53.198;6.592;2022-10-16T01:34:05;9.55;;;1.42;;
20482;SDS011;10400;53.198;6.592;2022-10-16T01:36:38;4.00;;;1.30;;
20482;SDS011;10400;53.198;6.592;2022-10-16T01:39:08;8.13;;;1.40;;
20482;SDS011;10400;53.198;6.592;2022-10-16T01:41:40;4.32;;;1.25;;
20482;SDS011;10400;53.198;6.592;2022-10-16T01:44:14;5.45;;;1.77;;
20482;SDS011;10400;53.198;6.592;2022-10-16T01:46:46;3.90;;;1.33;;
20482;SDS011;10400;53.198;6.592;2022-10-16T01:49:15;6.00;;;1.55;;
20482;SDS011;10400;53.198;6.592;2022-10-16T01:51:43;6.28;;;1.50;;
20482;SDS011;10400;53.198;6.592;2022-10-16T01:54:12;5.97;;;1.70;;
20482;SDS011;10400;53.198;6.592;2022-10-16T01:56:39;5.80;;;1.48;;
20482;SDS011;10400;53.198;6.592;2022-10-16T01:59:11;7.75;;;1.35;;
20482;SDS011;10400;53.198;6.592;2022-10-16T02:01:40;6.75;;;1.77;;
20482;SDS011;10400;53.198;6.592;2022-10-16T02:07:18;3.75;;;1.45;;
20482;SDS011;10400;53.198;6.592;2022-10-16T02:09:44;4.15;;;1.40;;
20482;SDS011;10400;53.198;6.592;2022-10-16T02:12:21;8.23;;;1.63;;
20482;SDS011;10400;53.198;6.592;2022-10-16T02:14:52;7.07;;;1.40;;
20482;SDS011;10400;53.198;6.592;2022-10-16T02:17:18;4.55;;;1.58;;
20482;SDS011;10400;53.198;6.592;2022-10-16T02:19:46;4.35;;;1.50;;
20482;SDS011;10400;53.198;6.592;2022-10-16T02:22:47;9.32;;;1.40;;
20482;SDS011;10400;53.198;6.592;2022-10-16T02:25:19;10.35;;;1.52;;
20482;SDS011;10400;53.198;6.592;2022-10-16T02:27:53;3.17;;;1.30;;
20482;SDS011;10400;53.198;6.592;2022-10-16T02:30:29;3.40;;;1.30;;
20482;SDS011;10400;53.198;6.592;2022-10-16T02:33:00;4.10;;;1.45;;
20482;SDS011;10400;53.198;6.592;2022-10-16T02:35:27;8.98;;;1.40;;
20482;SDS011;10400;53.198;6.592;2022-10-16T02:37:54;4.70;;;1.38;;
20482;SDS011;10400;53.198;6.592;2022-10-16T02:40:21;4.78;;;1.13;;
20482;SDS011;10400;53.198;6.592;2022-10-16T02:42:49;3.08;;;1.33;;
20482;SDS011;10400;53.198;6.592;2022-10-16T02:45:16;5.72;;;2.10;;
20482;SDS011;10400;53.198;6.592;2022-10-16T02:47:43;5.90;;;1.25;;
20482;SDS011;10400;53.198;6.592;2022-10-16T02:50:09;3.97;;;1.10;;
20482;SDS011;10400;53.198;6.592;2022-10-16T02:52:34;3.53;;;1.40;;
20482;SDS011;10400;53.198;6.592;2022-10-16T02:55:00;3.88;;;1.25;;
20482;SDS011;10400;53.198;6.592;2022-10-16T02:57:26;4.60;;;1.45;;
20482;SDS011;10400;53.198;6.592;2022-10-16T02:59:51;3.50;;;1.20;;
20482;SDS011;10400;53.198;6.592;2022-10-16T03:02:17;4.43;;;1.30;;
20482;SDS011;10400;53.198;6.592;2022-10-16T03:04:43;5.53;;;1.27;;
20482;SDS011;10400;53.198;6.592;2022-10-16T03:07:08;3.97;;;0.82;;
20482;SDS011;10400;53.198;6.592;2022-10-16T03:09:34;4.13;;;1.38;;
20482;SDS011;10400;53.198;6.592;2022-10-16T03:12:00;9.38;;;1.40;;
20482;SDS011;10400;53.198;6.592;2022-10-16T03:14:25;3.95;;;1.30;;
20482;SDS011;10400;53.198;6.592;2022-10-16T03:16:51;4.75;;;1.65;;
20482;SDS011;10400;53.198;6.592;2022-10-16T03:19:17;3.80;;;1.35;;
20482;SDS011;10400;53.198;6.592;2022-10-16T03:21:43;5.32;;;1.30;;
20482;SDS011;10400;53.198;6.592;2022-10-16T03:24:09;2.58;;;1.08;;
20482;SDS011;10400;53.198;6.592;2022-10-16T03:26:35;6.00;;;1.15;;
20482;SDS011;10400;53.198;6.592;2022-10-16T03:29:01;7.05;;;1.70;;
20482;SDS011;10400;53.198;6.592;2022-10-16T03:31:28;5.80;;;1.30;;
20482;SDS011;10400;53.198;6.592;2022-10-16T03:33:56;8.45;;;1.70;;
20482;SDS011;10400;53.198;6.592;2022-10-16T03:36:22;3.10;;;1.20;;
20482;SDS011;10400;53.198;6.592;2022-10-16T03:38:47;6.82;;;1.13;;
20482;SDS011;10400;53.198;6.592;2022-10-16T03:41:13;3.95;;;1.42;;
20482;SDS011;10400;53.198;6.592;2022-10-16T03:43:39;3.22;;;1.30;;
20482;SDS011;10400;53.198;6.592;2022-10-16T03:46:04;3.10;;;1.30;;
20482;SDS011;10400;53.198;6.592;2022-10-16T03:48:30;2.60;;;1.17;;
20482;SDS011;10400;53.198;6.592;2022-10-16T03:50:57;4.25;;;1.40;;
20482;SDS011;10400;53.198;6.592;2022-10-16T03:53:23;3.95;;;1.75;;
20482;SDS011;10400;53.198;6.592;2022-10-16T03:55:48;6.50;;;1.52;;
20482;SDS011;10400;53.198;6.592;2022-10-16T03:58:14;3.38;;;1.30;;
20482;SDS011;10400;53.198;6.592;2022-10-16T04:00:41;3.97;;;1.60;;
20482;SDS011;10400;53.198;6.592;2022-10-16T04:03:07;3.05;;;1.30;;
20482;SDS011;10400;53.198;6.592;2022-10-16T04:05:33;4.22;;;1.30;;
20482;SDS011;10400;53.198;6.592;2022-10-16T04:07:59;6.97;;;1.65;;
20482;SDS011;10400;53.198;6.592;2022-10-16T04:10:25;4.70;;;1.40;;
20482;SDS011;10400;53.198;6.592;2022-10-16T04:12:50;6.47;;;1.42;;
20482;SDS011;10400;53.198;6.592;2022-10-16T04:15:16;5.82;;;1.40;;
20482;SDS011;10400;53.198;6.592;2022-10-16T04:17:42;4.63;;;1.70;;
20482;SDS011;10400;53.198;6.592;2022-10-16T04:20:07;4.20;;;1.50;;
20482;SDS011;10400;53.198;6.592;2022-10-16T04:22:33;4.90;;;1.50;;
20482;SDS011;10400;53.198;6.592;2022-10-16T04:24:59;3.45;;;1.58;;
20482;SDS011;10400;53.198;6.592;2022-10-16T04:27:24;5.20;;;1.83;;
20482;SDS011;10400;53.198;6.592;2022-10-16T04:29:50;2.40;;;1.30;;
20482;SDS011;10400;53.198;6.592;2022-10-16T04:32:16;3.95;;;1.58;;
20482;SDS011;10400;53.198;6.592;2022-10-16T04:34:41;8.23;;;1.63;;
20482;SDS011;10400;53.198;6.592;2022-10-16T04:37:07;3.65;;;1.70;;
20482;SDS011;10400;53.198;6.592;2022-10-16T04:39:32;2.85;;;2.00;;
20482;SDS011;10400;53.198;6.592;2022-10-16T04:41:58;4.65;;;1.50;;
20482;SDS011;10400;53.198;6.592;2022-10-16T04:44:24;4.18;;;1.58;;
20482;SDS011;10400;53.198;6.592;2022-10-16T04:46:50;3.80;;;1.83;;
20482;SDS011;10400;53.198;6.592;2022-10-16T04:49:16;6.22;;;1.42;;
20482;SDS011;10400;53.198;6.592;2022-10-16T04:51:41;8.10;;;1.73;;
20482;SDS011;10400;53.198;6.592;2022-10-16T04:54:08;10.55;;;2.00;;
20482;SDS011;10400;53.198;6.592;2022-10-16T04:56:34;6.55;;;1.63;;
20482;SDS011;10400;53.198;6.592;2022-10-16T04:59:07;4.97;;;1.50;;
20482;SDS011;10400;53.198;6.592;2022-10-16T05:01:33;3.33;;;1.65;;
20482;SDS011;10400;53.198;6.592;2022-10-16T05:03:59;3.38;;;1.88;;
20482;SDS011;10400;53.198;6.592;2022-10-16T05:06:24;5.25;;;1.70;;
20482;SDS011;10400;53.198;6.592;2022-10-16T05:08:50;2.60;;;1.70;;
20482;SDS011;10400;53.198;6.592;2022-10-16T05:11:16;3.58;;;1.60;;
20482;SDS011;10400;53.198;6.592;2022-10-16T05:13:41;4.13;;;1.48;;
20482;SDS011;10400;53.198;6.592;2022-10-16T05:16:07;5.57;;;1.90;;
20482;SDS011;10400;53.198;6.592;2022-10-16T05:18:32;5.10;;;1.58;;
20482;SDS011;10400;53.198;6.592;2022-10-16T05:20:58;2.45;;;1.30;;
20482;SDS011;10400;53.198;6.592;2022-10-16T05:23:24;4.57;;;1.85;;
20482;SDS011;10400;53.198;6.592;2022-10-16T05:25:53;3.17;;;1.70;;
20482;SDS011;10400;53.198;6.592;2022-10-16T05:28:27;4.82;;;2.10;;
20482;SDS011;10400;53.198;6.592;2022-10-16T05:30:53;4.78;;;1.80;;
20482;SDS011;10400;53.198;6.592;2022-10-16T05:33:20;4.40;;;1.30;;
20482;SDS011;10400;53.198;6.592;2022-10-16T05:35:46;3.95;;;1.67;;
20482;SDS011;10400;53.198;6.592;2022-10-16T05:38:12;6.72;;;1.67;;
20482;SDS011;10400;53.198;6.592;2022-10-16T05:40:37;5.07;;;1.90;;
20482;SDS011;10400;53.198;6.592;2022-10-16T05:43:03;6.20;;;1.85;;
20482;SDS011;10400;53.198;6.592;2022-10-16T05:45:29;5.20;;;1.88;;
20482;SDS011;10400;53.198;6.592;2022-10-16T05:47:54;6.25;;;1.90;;
20482;SDS011;10400;53.198;6.592;2022-10-16T05:50:20;7.28;;;2.10;;
20482;SDS011;10400;53.198;6.592;2022-10-16T05:52:46;6.05;;;1.83;;
20482;SDS011;10400;53.198;6.592;2022-10-16T05:55:11;2.70;;;1.77;;
20482;SDS011;10400;53.198;6.592;2022-10-16T05:57:37;2.80;;;1.98;;
20482;SDS011;10400;53.198;6.592;2022-10-16T06:00:03;5.57;;;2.10;;
20482;SDS011;10400;53.198;6.592;2022-10-16T06:02:30;4.97;;;2.15;;
20482;SDS011;10400;53.198;6.592;2022-10-16T06:04:55;7.43;;;1.98;;
20482;SDS011;10400;53.198;6.592;2022-10-16T06:07:21;4.20;;;2.08;;
20482;SDS011;10400;53.198;6.592;2022-10-16T06:09:48;6.10;;;2.08;;
20482;SDS011;10400;53.198;6.592;2022-10-16T06:12:15;5.43;;;2.05;;
20482;SDS011;10400;53.198;6.592;2022-10-16T06:14:41;6.18;;;2.40;;
20482;SDS011;10400;53.198;6.592;2022-10-16T06:17:06;6.25;;;2.15;;
20482;SDS011;10400;53.198;6.592;2022-10-16T06:19:32;4.75;;;2.08;;
20482;SDS011;10400;53.198;6.592;2022-10-16T06:21:57;7.70;;;2.45;;
20482;SDS011;10400;53.198;6.592;2022-10-16T06:24:23;4.18;;;2.15;;
20482;SDS011;10400;53.198;6.592;2022-10-16T06:26:49;3.17;;;1.85;;
20482;SDS011;10400;53.198;6.592;2022-10-16T06:29:15;8.18;;;2.63;;
20482;SDS011;10400;53.198;6.592;2022-10-16T06:31:41;4.40;;;2.03;;
20482;SDS011;10400;53.198;6.592;2022-10-16T06:34:08;5.75;;;2.30;;
20482;SDS011;10400;53.198;6.592;2022-10-16T06:36:36;7.03;;;1.95;;
20482;SDS011;10400;53.198;6.592;2022-10-16T06:39:03;5.35;;;2.40;;
20482;SDS011;10400;53.198;6.592;2022-10-16T06:41:29;8.48;;;2.15;;
20482;SDS011;10400;53.198;6.592;2022-10-16T06:43:55;4.50;;;2.25;;
20482;SDS011;10400;53.198;6.592;2022-10-16T06:46:21;5.45;;;2.15;;
20482;SDS011;10400;53.198;6.592;2022-10-16T06:48:48;8.45;;;2.38;;
20482;SDS011;10400;53.198;6.592;2022-10-16T06:51:16;7.13;;;2.03;;
20482;SDS011;10400;53.198;6.592;2022-10-16T06:53:43;5.50;;;1.77;;
20482;SDS011;10400;53.198;6.592;2022-10-16T06:58:42;8.82;;;2.20;;
20482;SDS011;10400;53.198;6.592;2022-10-16T07:01:08;5.10;;;1.95;;
20482;SDS011;10400;53.198;6.592;2022-10-16T07:03:38;7.75;;;2.00;;
20482;SDS011;10400;53.198;6.592;2022-10-16T07:06:06;7.60;;;1.80;;
20482;SDS011;10400;53.198;6.592;2022-10-16T07:08:34;5.82;;;2.25;;
20482;SDS011;10400;53.198;6.592;2022-10-16T07:11:01;5.72;;;1.70;;
20482;SDS011;10400;53.198;6.592;2022-10-16T07:13:28;5.30;;;1.80;;
20482;SDS011;10400;53.198;6.592;2022-10-16T07:15:54;6.22;;;1.65;;
20482;SDS011;10400;53.198;6.592;2022-10-16T07:18:20;5.47;;;2.05;;
20482;SDS011;10400;53.198;6.592;2022-10-16T07:20:46;8.02;;;2.53;;
20482;SDS011;10400;53.198;6.592;2022-10-16T07:23:12;6.07;;;2.22;;
20482;SDS011;10400;53.198;6.592;2022-10-16T07:25:37;2.28;;;1.70;;
20482;SDS011;10400;53.198;6.592;2022-10-16T07:28:03;6.10;;;2.00;;
20482;SDS011;10400;53.198;6.592;2022-10-16T07:30:29;8.43;;;2.20;;
20482;SDS011;10400;53.198;6.592;2022-10-16T07:32:54;4.95;;;1.90;;
20482;SDS011;10400;53.198;6.592;2022-10-16T07:35:20;6.32;;;2.20;;
20482;SDS011;10400;53.198;6.592;2022-10-16T07:37:46;5.90;;;1.95;;
20482;SDS011;10400;53.198;6.592;2022-10-16T07:40:11;5.00;;;1.90;;
20482;SDS011;10400;53.198;6.592;2022-10-16T07:42:37;5.00;;;2.08;;
20482;SDS011;10400;53.198;6.592;2022-10-16T07:45:03;5.68;;;1.85;;
20482;SDS011;10400;53.198;6.592;2022-10-16T07:47:29;4.75;;;2.00;;
20482;SDS011;10400;53.198;6.592;2022-10-16T07:49:54;6.93;;;2.08;;
20482;SDS011;10400;53.198;6.592;2022-10-16T07:52:20;4.22;;;2.00;;
20482;SDS011;10400;53.198;6.592;2022-10-16T07:54:46;7.38;;;2.20;;
20482;SDS011;10400;53.198;6.592;2022-10-16T07:57:11;8.18;;;2.10;;
20482;SDS011;10400;53.198;6.592;2022-10-16T07:59:43;5.00;;;2.00;;
20482;SDS011;10400;53.198;6.592;2022-10-16T08:02:09;2.63;;;1.60;;
20482;SDS011;10400;53.198;6.592;2022-10-16T08:04:34;3.25;;;1.90;;
20482;SDS011;10400;53.198;6.592;2022-10-16T08:07:00;4.40;;;2.30;;
20482;SDS011;10400;53.198;6.592;2022-10-16T08:09:26;4.18;;;2.08;;
20482;SDS011;10400;53.198;6.592;2022-10-16T08:11:51;4.32;;;1.58;;
20482;SDS011;10400;53.198;6.592;2022-10-16T08:14:17;4.28;;;2.00;;
20482;SDS011;10400;53.198;6.592;2022-10-16T08:16:43;5.07;;;2.15;;
20482;SDS011;10400;53.198;6.592;2022-10-16T08:19:08;5.18;;;2.20;;
20482;SDS011;10400;53.198;6.592;2022-10-16T08:21:34;4.40;;;1.90;;
20482;SDS011;10400;53.198;6.592;2022-10-16T08:24:00;5.07;;;2.15;;
20482;SDS011;10400;53.198;6.592;2022-10-16T08:26:26;8.48;;;2.33;;
20482;SDS011;10400;53.198;6.592;2022-10-16T08:28:52;4.05;;;1.50;;
20482;SDS011;10400;53.198;6.592;2022-10-16T08:31:18;4.15;;;1.75;;
20482;SDS011;10400;53.198;6.592;2022-10-16T08:33:45;6.80;;;1.92;;
20482;SDS011;10400;53.198;6.592;2022-10-16T08:36:12;4.90;;;1.38;;
20482;SDS011;10400;53.198;6.592;2022-10-16T08:38:38;3.05;;;1.65;;
20482;SDS011;10400;53.198;6.592;2022-10-16T08:41:17;2.15;;;1.35;;
20482;SDS011;10400;53.198;6.592;2022-10-16T08:50:07;4.50;;;1.15;;
20482;SDS011;10400;53.198;6.592;2022-10-16T08:52:35;7.38;;;1.40;;
20482;SDS011;10400;53.198;6.592;2022-10-16T08:55:05;5.75;;;1.50;;
20482;SDS011;10400;53.198;6.592;2022-10-16T08:57:31;7.15;;;1.40;;
20482;SDS011;10400;53.198;6.592;2022-10-16T09:00:04;5.85;;;1.98;;
20482;SDS011;10400;53.198;6.592;2022-10-16T09:02:44;5.63;;;1.30;;
20482;SDS011;10400;53.198;6.592;2022-10-16T09:05:21;5.05;;;1.33;;
20482;SDS011;10400;53.198;6.592;2022-10-16T09:10:51;6.75;;;1.35;;
20482;SDS011;10400;53.198;6.592;2022-10-16T09:13:27;6.13;;;0.85;;
20482;SDS011;10400;53.198;6.592;2022-10-16T09:21:29;4.28;;;1.17;;
20482;SDS011;10400;53.198;6.592;2022-10-16T09:23:59;3.03;;;1.33;;
20482;SDS011;10400;53.198;6.592;2022-10-16T09:26:44;5.93;;;1.38;;
20482;SDS011;10400;53.198;6.592;2022-10-16T09:29:17;7.35;;;1.90;;
20482;SDS011;10400;53.198;6.592;2022-10-16T09:31:49;8.55;;;1.60;;
20482;SDS011;10400;53.198;6.592;2022-10-16T09:34:24;9.93;;;1.58;;
20482;SDS011;10400;53.198;6.592;2022-10-16T09:36:51;3.65;;;1.55;;
20482;SDS011;10400;53.198;6.592;2022-10-16T09:39:17;7.88;;;1.67;;
20482;SDS011;10400;53.198;6.592;2022-10-16T09:41:43;7.07;;;1.60;;
20482;SDS011;10400;53.198;6.592;2022-10-16T09:44:21;8.52;;;1.88;;
20482;SDS011;10400;53.198;6.592;2022-10-16T09:46:47;5.95;;;1.77;;
20482;SDS011;10400;53.198;6.592;2022-10-16T09:49:23;10.60;;;1.85;;
20482;SDS011;10400;53.198;6.592;2022-10-16T09:51:50;12.38;;;1.83;;
20482;SDS011;10400;53.198;6.592;2022-10-16T09:54:27;11.32;;;1.75;;
20482;SDS011;10400;53.198;6.592;2022-10-16T09:57:03;8.60;;;1.80;;
20482;SDS011;10400;53.198;6.592;2022-10-16T09:59:31;14.15;;;2.13;;
20482;SDS011;10400;53.198;6.592;2022-10-16T10:01:56;9.32;;;1.98;;
20482;SDS011;10400;53.198;6.592;2022-10-16T10:04:36;12.00;;;2.13;;
20482;SDS011;10400;53.198;6.592;2022-10-16T10:07:04;12.23;;;1.90;;
20482;SDS011;10400;53.198;6.592;2022-10-16T10:09:39;10.13;;;2.08;;
20482;SDS011;10400;53.198;6.592;2022-10-16T10:12:22;9.02;;;1.73;;
20482;SDS011;10400;53.198;6.592;2022-10-16T10:14:54;14.90;;;1.90;;
20482;SDS011;10400;53.198;6.592;2022-10-16T10:22:20;10.93;;;1.88;;
20482;SDS011;10400;53.198;6.592;2022-10-16T10:24:56;8.43;;;1.85;;
20482;SDS011;10400;53.198;6.592;2022-10-16T10:35:49;11.65;;;2.00;;
20482;SDS011;10400;53.198;6.592;2022-10-16T10:51:44;9.60;;;2.00;;
20482;SDS011;10400;53.198;6.592;2022-10-16T10:54:49;14.57;;;2.30;;
20482;SDS011;10400;53.198;6.592;2022-10-16T11:00:40;10.38;;;1.95;;
20482;SDS011;10400;53.198;6.592;2022-10-16T11:05:50;9.80;;;1.90;;
20482;SDS011;10400;53.198;6.592;2022-10-16T11:08:21;16.85;;;2.13;;
20482;SDS011;10400;53.198;6.592;2022-10-16T11:15:55;10.15;;;1.90;;
20482;SDS011;10400;53.198;6.592;2022-10-16T11:18:30;8.50;;;1.60;;
20482;SDS011;10400;53.198;6.592;2022-10-16T11:21:07;11.43;;;1.98;;
20482;SDS011;10400;53.198;6.592;2022-10-16T11:23:44;15.48;;;2.10;;
20482;SDS011;10400;53.198;6.592;2022-10-16T11:26:27;8.80;;;1.92;;
20482;SDS011;10400;53.198;6.592;2022-10-16T11:28:57;11.85;;;2.33;;
20482;SDS011;10400;53.198;6.592;2022-10-16T11:31:43;14.52;;;2.25;;
20482;SDS011;10400;53.198;6.592;2022-10-16T11:34:28;13.45;;;1.83;;
20482;SDS011;10400;53.198;6.592;2022-10-16T11:37:08;9.65;;;1.70;;
20482;SDS011;10400;53.198;6.592;2022-10-16T11:39:39;14.27;;;2.03;;
20482;SDS011;10400;53.198;6.592;2022-10-16T11:44:59;13.20;;;2.00;;
20482;SDS011;10400;53.198;6.592;2022-10-16T11:55:46;10.82;;;1.60;;
20482;SDS011;10400;53.198;6.592;2022-10-16T12:08:43;9.45;;;2.03;;
20482;SDS011;10400;53.198;6.592;2022-10-16T12:11:20;16.20;;;2.15;;
20482;SDS011;10400;53.198;6.592;2022-10-16T12:14:05;12.38;;;2.10;;
20482;SDS011;10400;53.198;6.592;2022-10-16T12:19:25;13.15;;;2.08;;
20482;SDS011;10400;53.198;6.592;2022-10-16T12:21:54;11.93;;;1.83;;
20482;SDS011;10400;53.198;6.592;2022-10-16T12:24:32;8.10;;;2.25;;
20482;SDS011;10400;53.198;6.592;2022-10-16T12:27:04;12.82;;;1.70;;
20482;SDS011;10400;53.198;6.592;2022-10-16T12:29:41;11.82;;;2.05;;
20482;SDS011;10400;53.198;6.592;2022-10-16T12:32:22;18.08;;;2.20;;
20482;SDS011;10400;53.198;6.592;2022-10-16T12:34:59;16.80;;;2.20;;
20482;SDS011;10400;53.198;6.592;2022-10-16T12:37:27;8.77;;;1.80;;
20482;SDS011;10400;53.198;6.592;2022-10-16T12:39:57;16.88;;;2.70;;
20482;SDS011;10400;53.198;6.592;2022-10-16T12:44:53;11.38;;;2.30;;
20482;SDS011;10400;53.198;6.592;2022-10-16T12:49:57;15.75;;;2.55;;
20482;SDS011;10400;53.198;6.592;2022-10-16T12:54:58;10.82;;;2.33;;
20482;SDS011;10400;53.198;6.592;2022-10-16T13:00:43;15.18;;;2.53;;
20482;SDS011;10400;53.198;6.592;2022-10-16T13:11:37;9.10;;;2.03;;
20482;SDS011;10400;53.198;6.592;2022-10-16T13:17:23;14.40;;;2.22;;
20482;SDS011;10400;53.198;6.592;2022-10-16T13:22:56;11.57;;;2.10;;
20482;SDS011;10400;53.198;6.592;2022-10-16T13:25:43;9.65;;;1.88;;
20482;SDS011;10400;53.198;6.592;2022-10-16T13:28:27;15.23;;;2.03;;
20482;SDS011;10400;53.198;6.592;2022-10-16T13:30:56;10.48;;;1.95;;
20482;SDS011;10400;53.198;6.592;2022-10-16T13:35:55;12.18;;;2.13;;
20482;SDS011;10400;53.198;6.592;2022-10-16T13:38:22;17.33;;;2.70;;
20482;SDS011;10400;53.198;6.592;2022-10-16T13:43:44;20.55;;;2.70;;
20482;SDS011;10400;53.198;6.592;2022-10-16T13:46:19;9.00;;;1.90;;
20482;SDS011;10400;53.198;6.592;2022-10-16T13:48:59;14.38;;;2.03;;
20482;SDS011;10400;53.198;6.592;2022-10-16T13:51:26;13.73;;;2.42;;
20482;SDS011;10400;53.198;6.592;2022-10-16T13:53:52;12.25;;;2.25;;
20482;SDS011;10400;53.198;6.592;2022-10-16T13:56:22;15.55;;;2.22;;
20482;SDS011;10400;53.198;6.592;2022-10-16T13:59:00;11.80;;;2.25;;
20482;SDS011;10400;53.198;6.592;2022-10-16T14:01:29;18.98;;;3.15;;
20482;SDS011;10400;53.198;6.592;2022-10-16T14:04:07;11.18;;;2.05;;
20482;SDS011;10400;53.198;6.592;2022-10-16T14:06:35;10.38;;;2.25;;
20482;SDS011;10400;53.198;6.592;2022-10-16T14:09:05;13.82;;;2.22;;
20482;SDS011;10400;53.198;6.592;2022-10-16T14:11:49;13.90;;;2.40;;
20482;SDS011;10400;53.198;6.592;2022-10-16T14:14:20;13.52;;;2.20;;
20482;SDS011;10400;53.198;6.592;2022-10-16T14:16:46;11.45;;;2.40;;
20482;SDS011;10400;53.198;6.592;2022-10-16T14:19:15;11.32;;;2.05;;
20482;SDS011;10400;53.198;6.592;2022-10-16T14:21:49;13.02;;;2.35;;
20482;SDS011;10400;53.198;6.592;2022-10-16T14:24:34;10.05;;;2.00;;
20482;SDS011;10400;53.198;6.592;2022-10-16T14:27:00;17.70;;;2.83;;
20482;SDS011;10400;53.198;6.592;2022-10-16T14:29:27;12.73;;;2.00;;
20482;SDS011;10400;53.198;6.592;2022-10-16T14:37:13;11.18;;;2.28;;
20482;SDS011;10400;53.198;6.592;2022-10-16T14:39:51;21.63;;;2.55;;
20482;SDS011;10400;53.198;6.592;2022-10-16T14:42:18;13.25;;;2.30;;
20482;SDS011;10400;53.198;6.592;2022-10-16T14:44:48;13.73;;;2.35;;
20482;SDS011;10400;53.198;6.592;2022-10-16T14:47:18;12.52;;;2.17;;
20482;SDS011;10400;53.198;6.592;2022-10-16T14:49:50;12.48;;;1.95;;
20482;SDS011;10400;53.198;6.592;2022-10-16T14:52:16;12.13;;;2.17;;
20482;SDS011;10400;53.198;6.592;2022-10-16T14:54:43;11.80;;;2.00;;
20482;SDS011;10400;53.198;6.592;2022-10-16T14:57:18;18.30;;;2.83;;
20482;SDS011;10400;53.198;6.592;2022-10-16T14:59:52;10.82;;;2.10;;
20482;SDS011;10400;53.198;6.592;2022-10-16T15:02:27;12.43;;;2.03;;
20482;SDS011;10400;53.198;6.592;2022-10-16T15:04:55;15.57;;;2.33;;
20482;SDS011;10400;53.198;6.592;2022-10-16T15:07:21;9.90;;;2.50;;
20482;SDS011;10400;53.198;6.592;2022-10-16T15:09:47;14.60;;;1.90;;
20482;SDS011;10400;53.198;6.592;2022-10-16T15:12:13;14.55;;;2.28;;
20482;SDS011;10400;53.198;6.592;2022-10-16T15:14:38;13.38;;;1.80;;
20482;SDS011;10400;53.198;6.592;2022-10-16T15:17:04;14.70;;;2.00;;
20482;SDS011;10400;53.198;6.592;2022-10-16T15:19:30;8.73;;;2.45;;
20482;SDS011;10400;53.198;6.592;2022-10-16T15:21:56;10.75;;;2.08;;
20482;SDS011;10400;53.198;6.592;2022-10-16T15:24:21;10.40;;;1.90;;
20482;SDS011;10400;53.198;6.592;2022-10-16T15:26:47;9.55;;;2.40;;
20482;SDS011;10400;53.198;6.592;2022-10-16T15:29:14;11.30;;;2.08;;
20482;SDS011;10400;53.198;6.592;2022-10-16T15:31:40;13.93;;;2.50;;
20482;SDS011;10400;53.198;6.592;2022-10-16T15:34:10;10.77;;;2.10;;
20482;SDS011;10400;53.198;6.592;2022-10-16T15:36:37;13.88;;;2.30;;
20482;SDS011;10400;53.198;6.592;2022-10-16T15:39:03;11.95;;;2.10;;
20482;SDS011;10400;53.198;6.592;2022-10-16T15:41:30;14.15;;;2.65;;
20482;SDS011;10400;53.198;6.592;2022-10-16T15:43:56;14.95;;;2.25;;
20482;SDS011;10400;53.198;6.592;2022-10-16T15:46:22;12.93;;;2.70;;
20482;SDS011;10400;53.198;6.592;2022-10-16T15:48:50;20.33;;;3.00;;
20482;SDS011;10400;53.198;6.592;2022-10-16T15:51:20;15.77;;;2.20;;
20482;SDS011;10400;53.198;6.592;2022-10-16T15:53:46;11.77;;;2.20;;
20482;SDS011;10400;53.198;6.592;2022-10-16T15:56:12;12.73;;;2.38;;
20482;SDS011;10400;53.198;6.592;2022-10-16T15:58:39;10.93;;;1.88;;
20482;SDS011;10400;53.198;6.592;2022-10-16T16:01:06;9.55;;;1.77;;
20482;SDS011;10400;53.198;6.592;2022-10-16T16:03:34;14.80;;;2.30;;
20482;SDS011;10400;53.198;6.592;2022-10-16T16:06:04;12.00;;;1.70;;
20482;SDS011;10400;53.198;6.592;2022-10-16T16:08:32;13.52;;;2.28;;
20482;SDS011;10400;53.198;6.592;2022-10-16T16:11:02;14.20;;;2.28;;
20482;SDS011;10400;53.198;6.592;2022-10-16T16:13:32;12.75;;;2.10;;
20482;SDS011;10400;53.198;6.592;2022-10-16T16:15:58;8.38;;;1.95;;
20482;SDS011;10400;53.198;6.592;2022-10-16T16:18:24;6.32;;;1.80;;
20482;SDS011;10400;53.198;6.592;2022-10-16T16:20:51;13.95;;;2.38;;
20482;SDS011;10400;53.198;6.592;2022-10-16T16:23:17;10.90;;;2.40;;
20482;SDS011;10400;53.198;6.592;2022-10-16T16:25:44;12.85;;;3.65;;
20482;SDS011;10400;53.198;6.592;2022-10-16T16:28:09;14.70;;;4.10;;
20482;SDS011;10400;53.198;6.592;2022-10-16T16:30:39;18.38;;;4.63;;
20482;SDS011;10400;53.198;6.592;2022-10-16T16:33:05;14.20;;;4.82;;
20482;SDS011;10400;53.198;6.592;2022-10-16T16:35:30;19.77;;;5.00;;
20482;SDS011;10400;53.198;6.592;2022-10-16T16:37:56;19.40;;;6.80;;
20482;SDS011;10400;53.198;6.592;2022-10-16T16:40:21;22.02;;;6.93;;
20482;SDS011;10400;53.198;6.592;2022-10-16T16:42:47;17.27;;;6.68;;
20482;SDS011;10400;53.198;6.592;2022-10-16T16:45:14;15.23;;;6.18;;
20482;SDS011;10400;53.198;6.592;2022-10-16T16:47:40;10.88;;;4.05;;
20482;SDS011;10400;53.198;6.592;2022-10-16T16:50:05;12.70;;;5.22;;
20482;SDS011;10400;53.198;6.592;2022-10-16T16:52:33;11.93;;;4.93;;
20482;SDS011;10400;53.198;6.592;2022-10-16T16:54:59;14.43;;;4.18;;
20482;SDS011;10400;53.198;6.592;2022-10-16T16:57:26;13.27;;;3.75;;
20482;SDS011;10400;53.198;6.592;2022-10-16T16:59:51;16.27;;;3.85;;